.
WxDataArchive / Data Records for 2007-06-22
2007-06-21 June 2007 2007-06-23

Data Records for Friday, 22 June 2007

Time	Temp	Chill	HIndex	Humid	Dewpt	 Wind 	HiWind	WindDir	Rain 	Barom 
-----	----	-----	------	-----	-----	------	------	-------	-----	----- 
00:00	69.9	69.9	69.9	58	54.4	0	2	292	0.00	30.000 
00:05	69.8	69.8	69.8	58	54.3	0	1	292	0.00	30.002 
00:10	69.6	69.6	69.6	58	54.2	0	1	292	0.00	30.001 
00:15	69.4	69.4	69.4	58	54.0	0	2	202	0.00	30.003 
00:20	69.3	69.3	69.3	57	53.4	0	1	202	0.00	30.004 
00:25	69.1	69.1	69.1	54	51.7	0	2	202	0.00	30.008 
00:30	69.1	69.1	69.1	48	48.6	1	4	112	0.00	30.003 
00:35	69.4	69.4	69.4	46	47.7	1	3	135	0.00	30.002 
00:40	69.6	69.6	69.6	46	47.9	1	4	90	0.00	30.000 
00:45	69.6	69.6	69.6	46	47.9	1	3	90	0.00	30.000 
00:50	69.6	69.6	69.6	45	47.3	0	3	112	0.00	30.001 
00:55	69.6	69.6	69.6	45	47.3	1	2	112	0.00	30.002 
01:00	69.4	69.4	69.4	45	47.1	0	1	90	0.00	30.012 
01:05	69.3	69.3	69.3	44	46.4	0	1	90	0.00	30.015 
01:10	69.1	69.1	69.1	45	46.9	0	1	90	0.00	30.018 
01:15	68.9	68.9	68.9	44	46.1	0	1	90	0.00	30.022 
01:20	68.8	68.8	68.8	45	46.6	0	1	90	0.00	30.027 
01:25	68.6	68.6	68.6	44	45.8	0	1	90	0.00	30.027 
01:30	68.4	68.4	68.4	43	45.0	0	1	90	0.00	30.031 
01:35	68.4	68.4	68.4	42	44.4	0	3	112	0.00	30.025 
01:40	68.3	68.3	68.3	54	51.0	1	3	112	0.01	30.017 
01:45	66.9	66.9	66.9	58	51.6	1	3	90	0.00	30.010 
01:50	65.8	65.8	65.8	58	50.6	1	3	45	0.01	30.004 
01:55	65.0	65.0	65.0	57	49.4	2	6	90	0.00	29.990 
02:00	64.2	64.2	64.2	60	50.0	0	2	90	0.00	30.005 
02:05	63.7	63.7	63.7	62	50.4	0	1	90	0.00	30.007 
02:10	63.1	63.1	63.1	63	50.3	0	0	---	0.00	30.012 
02:15	62.6	62.6	62.6	65	50.7	0	0	---	0.00	30.010 
02:20	62.1	62.1	62.1	69	51.8	0	0	---	0.00	30.016 
02:25	61.8	61.8	61.8	69	51.5	0	0	---	0.00	30.017 
02:30	61.6	61.6	61.6	68	50.9	0	2	90	0.00	30.010 
02:35	62.0	62.0	62.0	67	50.9	0	1	90	0.00	30.010 
02:40	62.1	62.1	62.1	67	51.0	0	2	90	0.00	30.005 
02:45	62.4	62.4	62.4	63	49.6	1	2	90	0.00	30.000 
02:50	63.1	63.1	63.1	59	48.5	2	4	112	0.00	29.994 
02:55	63.4	63.4	63.4	57	47.9	1	3	90	0.00	29.995 
03:00	63.5	63.5	63.5	57	48.0	1	5	90	0.00	29.994 
03:05	63.7	63.7	63.7	57	48.2	1	3	90	0.00	29.999 
03:10	63.7	63.7	63.7	56	47.7	2	5	112	0.00	30.003 
03:15	63.5	63.5	63.5	57	48.0	1	4	68	0.00	30.005 
03:20	63.5	63.5	63.5	58	48.5	1	2	68	0.00	30.009 
03:25	63.4	63.4	63.4	58	48.4	1	5	112	0.00	30.014 
03:30	63.2	63.2	63.2	58	48.2	0	2	112	0.00	30.015 
03:35	63.1	63.1	63.1	58	48.1	0	3	112	0.00	30.015 
03:40	62.9	62.9	62.9	59	48.3	0	3	68	0.00	30.012 
03:45	62.7	62.7	62.7	59	48.2	1	2	68	0.00	30.008 
03:50	62.7	62.7	62.7	59	48.2	1	3	112	0.00	30.006 
03:55	62.7	62.7	62.7	59	48.2	1	3	112	0.00	30.006 
04:00	62.7	62.7	62.7	57	47.2	1	6	90	0.00	30.007 
04:05	62.9	62.9	62.9	57	47.4	1	4	68	0.00	30.013 
04:10	62.9	62.9	62.9	57	47.4	0	1	68	0.00	30.013 
04:15	62.9	62.9	62.9	55	46.5	1	4	68	0.00	30.014 
04:20	63.1	63.1	63.1	56	47.1	1	2	90	0.00	30.016 
04:25	63.1	63.1	63.1	54	46.2	1	2	90	0.00	30.017 
04:30	63.2	63.2	63.2	54	46.3	2	4	112	0.00	30.019 
04:35	63.2	63.2	63.2	52	45.3	1	3	90	0.00	30.017 
04:40	63.2	63.2	63.2	52	45.3	1	4	68	0.00	30.015 
04:45	63.4	63.4	63.4	51	45.0	1	3	68	0.00	30.014 
04:50	63.4	63.4	63.4	51	45.0	1	4	68	0.00	30.019 
04:55	63.4	63.4	63.4	50	44.4	1	4	90	0.00	30.023 
05:00	63.4	63.4	63.4	50	44.4	1	4	90	0.00	30.025 
05:05	63.4	63.4	63.4	51	45.0	1	3	90	0.00	30.033 
05:10	63.4	63.4	63.4	52	45.5	0	1	90	0.00	30.038 
05:15	63.2	63.2	63.2	51	44.8	1	3	90	0.00	30.040 
05:20	63.2	63.2	63.2	51	44.8	0	2	90	0.00	30.040 
05:25	63.1	63.1	63.1	53	45.7	0	1	90	0.00	30.047 
05:30	63.1	63.1	63.1	53	45.7	0	1	90	0.00	30.049 
05:35	62.9	62.9	62.9	53	45.5	0	1	90	0.00	30.051 
05:40	62.9	62.9	62.9	53	45.5	0	1	90	0.00	30.050 
05:45	62.9	62.9	62.9	53	45.5	0	2	90	0.00	30.048 
05:50	62.9	62.9	62.9	53	45.5	0	3	112	0.00	30.046 
05:55	62.7	62.7	62.7	53	45.3	1	3	45	0.00	30.045 
06:00	62.7	62.7	62.7	54	45.8	1	3	90	0.00	30.046 
06:05	62.7	62.7	62.7	52	44.8	0	1	90	0.00	30.049 
06:10	62.7	62.7	62.7	51	44.3	0	2	90	0.00	30.048 
06:15	62.7	62.7	62.7	53	45.3	0	1	90	0.00	30.054 
06:20	62.7	62.7	62.7	55	46.3	0	0	---	0.00	30.055 
06:25	62.6	62.6	62.6	54	45.7	0	1	90	0.00	30.055 
06:30	62.6	62.6	62.6	54	45.7	0	2	90	0.00	30.054 
06:35	62.7	62.7	62.7	55	46.3	0	1	90	0.00	30.054 
06:40	62.7	62.7	62.7	54	45.8	1	3	90	0.00	30.054 
06:45	62.7	62.7	62.7	54	45.8	1	3	112	0.00	30.053 
06:50	62.7	62.7	62.7	54	45.8	1	3	112	0.00	30.052 
06:55	62.7	62.7	62.7	54	45.8	2	4	90	0.00	30.052 
07:00	62.6	62.6	62.6	54	45.7	1	4	90	0.00	30.047 
07:05	62.6	62.6	62.6	54	45.7	2	4	90	0.00	30.049 
07:10	62.6	62.6	62.6	54	45.7	2	6	90	0.00	30.050 
07:15	62.7	62.7	62.7	55	46.3	1	4	112	0.00	30.049 
07:20	62.9	62.9	62.9	54	46.0	2	4	112	0.00	30.047 
07:25	63.2	63.2	63.2	55	46.8	2	3	90	0.00	30.046 
07:30	63.7	63.7	63.7	54	46.7	2	4	90	0.00	30.041 
07:35	64.2	64.2	64.2	55	47.7	1	4	90	0.00	30.042 
07:40	65.0	65.0	65.0	53	47.4	2	6	90	0.00	30.041 
07:45	65.0	65.0	65.0	52	46.9	2	4	112	0.00	30.046 
07:50	65.3	65.3	65.3	53	47.7	2	6	90	0.00	30.041 
07:55	65.6	65.6	65.6	53	48.0	1	4	90	0.00	30.039 
08:00	66.0	66.0	66.0	52	47.9	3	7	90	0.00	30.040 
08:05	66.0	66.0	66.0	51	47.3	2	5	112	0.00	30.043 
08:10	66.3	66.3	66.3	51	47.6	2	4	112	0.00	30.044 
08:15	66.8	66.8	66.8	51	48.1	2	5	90	0.00	30.046 
08:20	67.6	67.6	67.6	49	47.8	2	5	112	0.00	30.045 
08:25	67.6	67.6	67.6	52	49.3	2	5	112	0.00	30.041 
08:30	68.1	68.1	68.1	49	48.2	2	5	90	0.00	30.045 
08:35	68.3	68.3	68.3	50	48.9	2	5	135	0.00	30.051 
08:40	68.9	68.9	68.9	50	49.5	1	3	90	0.00	30.052 
08:45	69.6	69.6	69.6	49	49.6	1	4	112	0.00	30.053 
08:50	69.9	69.9	69.9	47	48.7	2	5	112	0.00	30.052 
08:55	70.1	70.1	70.1	49	50.0	2	5	90	0.00	30.052 
09:00	70.3	70.3	70.3	47	49.1	2	5	90	0.00	30.053 
09:05	70.3	70.3	70.3	46	48.5	2	7	112	0.00	30.055 
09:10	70.3	70.3	70.3	46	48.5	3	7	112	0.00	30.055 
09:15	70.3	70.3	70.3	47	49.1	1	3	112	0.00	30.056 
09:20	70.4	70.4	70.4	47	49.2	2	6	112	0.00	30.056 
09:25	71.1	71.1	71.1	45	48.7	2	6	90	0.00	30.055 
09:30	71.3	71.3	71.3	44	48.2	2	6	90	0.00	30.053 
09:35	71.3	71.3	71.3	44	48.2	2	5	90	0.00	30.054 
09:40	71.5	71.5	71.5	44	48.4	1	3	135	0.00	30.052 
09:45	72.3	72.3	72.3	46	50.3	1	5	90	0.00	30.051 
09:50	72.7	72.7	72.7	46	50.7	2	6	112	0.00	30.047 
09:55	72.7	72.7	72.7	46	50.7	1	5	90	0.00	30.046 
10:00	72.8	72.8	72.8	45	50.2	1	5	112	0.00	30.045 
10:05	73.0	73.0	73.0	45	50.4	1	4	112	0.00	30.045 
10:10	73.0	73.0	73.0	42	48.5	2	5	90	0.00	30.047 
10:15	73.2	73.2	73.2	48	52.3	0	2	90	0.00	30.047 
10:20	73.5	73.5	73.5	44	50.2	2	5	90	0.00	30.047 
10:25	73.9	73.9	73.9	45	51.2	2	4	112	0.00	30.046 
10:30	74.4	74.4	74.4	44	51.0	1	5	112	0.00	30.046 
10:35	74.9	74.9	74.9	44	51.5	0	2	90	0.00	30.040 
10:40	75.4	75.4	77.7	43	51.3	1	4	112	0.00	30.039 
10:45	75.1	75.1	77.5	39	48.4	1	5	68	0.00	30.039 
10:50	75.1	75.1	77.5	39	48.4	3	4	90	0.00	30.038 
10:55	74.7	74.7	74.7	44	51.3	2	5	112	0.00	30.037 
11:00	74.7	74.7	74.7	38	47.4	1	4	90	0.00	30.037 
11:05	74.7	74.7	74.7	41	49.4	2	6	112	0.00	30.039 
11:10	75.1	75.1	77.6	42	50.4	1	4	90	0.00	30.038 
11:15	75.3	75.3	77.5	39	48.6	2	4	90	0.00	30.037 
11:20	75.3	75.3	77.5	37	47.2	2	6	112	0.00	30.037 
11:25	75.4	75.4	77.6	39	48.7	1	5	112	0.00	30.036 
11:30	75.8	75.8	77.7	39	49.1	2	4	112	0.00	30.034 
11:35	76.0	76.0	77.7	38	48.5	1	3	0	0.00	30.035 
11:40	76.1	76.1	77.8	38	48.6	2	6	112	0.00	30.036 
11:45	76.0	76.0	77.6	36	47.1	2	5	90	0.00	30.036 
11:50	76.1	76.1	77.8	39	49.3	1	4	112	0.00	30.035 
11:55	76.8	76.8	78.0	38	49.2	1	3	90	0.00	30.032 
12:00	76.3	76.3	77.7	36	47.4	1	5	270	0.00	30.027 
12:05	75.6	75.6	77.6	39	48.9	1	2	315	0.00	30.026 
12:10	76.0	76.0	77.7	37	47.8	1	2	0	0.00	30.025 
12:15	76.1	76.1	77.9	40	50.0	1	4	90	0.00	30.024 
12:20	76.5	76.5	77.8	36	47.5	1	6	112	0.00	30.022 
12:25	77.0	77.0	78.0	35	47.2	1	3	68	0.00	30.020 
12:30	77.6	77.6	78.1	33	46.2	1	4	112	0.00	30.019 
12:35	77.9	77.9	78.4	36	48.8	1	4	90	0.00	30.018 
12:40	78.1	78.1	78.4	34	47.4	0	4	68	0.00	30.016 
12:45	78.1	78.1	78.4	33	46.6	1	4	90	0.00	30.012 
12:50	77.9	77.9	78.3	33	46.5	0	3	112	0.00	30.013 
12:55	77.9	77.9	78.3	34	47.2	1	4	22	0.00	30.011 
13:00	77.7	77.7	78.2	34	47.1	1	4	90	0.00	30.009 
13:05	77.0	77.0	77.9	33	45.7	1	4	315	0.00	30.012 
13:10	77.2	77.2	78.1	36	48.2	1	3	270	0.00	30.012 
13:15	77.6	77.6	78.4	37	49.2	1	5	292	0.00	30.016 
13:20	77.6	77.6	78.1	33	46.2	1	5	112	0.00	30.015 
13:25	77.6	77.6	78.1	32	45.4	1	3	112	0.00	30.012 
13:30	77.6	77.6	78.1	32	45.4	1	2	202	0.00	30.010 
13:35	77.6	77.6	78.2	34	47.0	1	3	270	0.00	30.010 
13:40	77.6	77.6	78.4	38	50.0	0	2	270	0.00	30.009 
13:45	78.1	78.1	78.4	34	47.4	0	3	90	0.00	30.009 
13:50	78.8	78.8	78.6	32	46.4	1	2	315	0.00	30.006 
13:55	79.4	79.4	79.0	33	47.8	1	4	315	0.00	30.007 
14:00	79.4	79.4	78.7	28	43.4	2	7	90	0.00	30.004 
14:05	79.2	79.2	78.6	28	43.3	2	6	90	0.00	30.007 
14:10	79.0	79.0	78.8	32	46.6	1	4	90	0.00	30.005 
14:15	79.4	79.4	78.9	31	46.1	0	3	180	0.00	30.006 
14:20	79.4	79.4	78.8	29	44.3	0	3	45	0.00	30.001 
14:25	79.4	79.4	78.8	29	44.3	1	2	45	0.00	30.000 
14:30	79.6	79.6	78.8	28	43.6	1	3	292	0.00	29.995 
14:35	79.0	79.0	78.5	28	43.1	1	4	315	0.00	29.998 
14:40	79.8	79.8	79.1	30	45.6	1	4	112	0.00	29.993 
14:45	80.1	80.1	79.1	27	43.1	2	6	90	0.00	29.992 
14:50	80.1	80.1	79.2	29	44.9	2	5	112	0.00	29.992 
14:55	79.6	79.6	78.8	28	43.6	1	3	270	0.00	29.989 
15:00	79.8	79.8	79.1	31	46.5	1	3	0	0.00	29.986 
15:05	79.9	79.9	78.9	27	42.9	1	3	90	0.00	29.983 
15:10	80.3	80.3	79.6	33	48.5	2	6	45	0.00	29.979 
15:15	80.3	80.3	79.3	29	45.1	1	4	68	0.00	29.977 
15:20	80.1	80.1	79.2	30	45.8	2	5	112	0.00	29.977 
15:25	80.3	80.3	79.6	33	48.5	1	3	112	0.00	29.976 
15:30	80.7	80.7	79.5	29	45.5	1	6	90	0.00	29.974 
15:35	80.7	80.7	79.7	31	47.2	1	4	90	0.00	29.975 
15:40	80.5	80.5	79.5	30	46.2	1	3	90	0.00	29.968 
15:45	80.3	80.3	79.2	28	44.2	0	1	90	0.00	29.968 
15:50	80.3	80.3	79.5	32	47.7	1	3	45	0.00	29.965 
15:55	80.5	80.5	79.4	29	45.3	1	5	68	0.00	29.962 
16:00	80.5	80.5	79.3	27	43.4	2	6	90	0.00	29.963 
16:05	80.3	80.3	79.3	29	45.1	2	5	90	0.00	29.965 
16:10	79.9	79.9	79.3	33	48.2	2	4	112	0.00	29.965 
16:15	79.6	79.6	78.8	27	42.7	1	3	112	0.00	29.963 
16:20	79.4	79.4	78.8	29	44.3	0	2	112	0.00	29.962 
16:25	79.2	79.2	78.9	32	46.8	1	4	135	0.00	29.961 
16:30	78.8	78.8	78.6	31	45.6	2	6	112	0.00	29.960 
16:35	78.5	78.5	78.4	31	45.3	2	5	90	0.00	29.958 
16:40	78.6	78.6	78.4	30	44.6	1	3	270	0.00	29.956 
16:45	78.6	78.6	78.4	30	44.6	2	4	90	0.00	29.956 
16:50	78.6	78.6	78.4	29	43.7	2	6	90	0.00	29.957 
16:55	78.3	78.3	78.3	30	44.3	2	5	90	0.00	29.959 
17:00	78.1	78.1	78.0	28	42.3	2	6	90	0.00	29.959 
17:05	77.7	77.7	78.0	31	44.6	1	4	112	0.00	29.955 
17:10	77.6	77.6	77.9	30	43.7	1	4	68	0.00	29.955 
17:15	77.6	77.6	77.9	30	43.7	1	4	112	0.00	29.951 
17:20	77.4	77.4	78.0	32	45.2	1	4	112	0.00	29.951 
17:25	77.2	77.2	77.8	30	43.3	1	4	112	0.00	29.954 
17:30	77.0	77.0	77.7	31	44.0	1	4	112	0.00	29.954 
17:35	77.0	77.0	77.8	32	44.9	1	4	68	0.00	29.955 
17:40	77.0	77.0	77.7	31	44.0	1	3	68	0.00	29.954 
17:45	76.8	76.8	77.7	31	43.9	1	4	90	0.00	29.952 
17:50	76.7	76.7	77.6	31	43.8	0	2	90	0.00	29.953 
17:55	76.5	76.5	77.6	32	44.4	1	3	90	0.00	29.951 
18:00	76.5	76.5	77.7	34	46.0	0	1	90	0.00	29.950 
18:05	76.5	76.5	77.7	33	45.2	1	4	90	0.00	29.948 
18:10	76.5	76.5	77.7	34	46.0	1	3	90	0.00	29.948 
18:15	76.5	76.5	77.5	31	43.6	1	3	90	0.00	29.948 
18:20	76.3	76.3	77.5	32	44.3	0	2	90	0.00	29.950 
18:25	76.3	76.3	77.5	32	44.3	0	1	90	0.00	29.950 
18:30	76.3	76.3	77.6	34	45.8	1	3	90	0.00	29.950 
18:35	76.1	76.1	77.6	34	45.7	0	2	90	0.00	29.952 
18:40	76.1	76.1	77.6	34	45.7	0	1	90	0.00	29.954 
18:45	76.1	76.1	77.6	34	45.7	0	2	90	0.00	29.955 
18:50	76.1	76.1	77.5	33	44.9	0	4	90	0.00	29.957 
18:55	76.0	76.0	77.5	33	44.8	0	1	90	0.00	29.959 
19:00	75.8	75.8	77.4	33	44.6	0	1	90	0.00	29.961 
19:05	75.6	75.6	77.3	33	44.5	0	2	90	0.00	29.958 
19:10	75.4	75.4	77.3	34	45.1	0	2	90	0.00	29.960 
19:15	75.3	75.3	77.3	34	45.0	0	1	90	0.00	29.962 
19:20	75.1	75.1	77.3	36	46.3	0	0	---	0.00	29.962 
19:25	74.7	74.7	74.7	35	45.2	0	1	90	0.00	29.963 
19:30	74.4	74.4	74.4	36	45.7	0	2	90	0.00	29.961 
19:35	74.0	74.0	74.0	35	44.6	0	1	90	0.00	29.961 
19:40	73.9	73.9	73.9	37	46.0	0	0	---	0.00	29.961 
19:45	73.5	73.5	73.5	38	46.3	0	0	---	0.00	29.960 
19:50	73.0	73.0	73.0	38	45.9	0	0	---	0.00	29.963 
19:55	72.7	72.7	72.7	39	46.3	0	0	---	0.00	29.963 
20:00	72.1	72.1	72.1	41	47.1	0	0	---	0.00	29.965 
20:05	71.8	71.8	71.8	42	47.5	0	0	---	0.00	29.962 
20:10	71.3	71.3	71.3	43	47.6	0	0	---	0.00	29.963 
20:15	70.8	70.8	70.8	43	47.2	0	0	---	0.00	29.965 
20:20	70.4	70.4	70.4	44	47.4	0	0	---	0.00	29.967 
20:25	69.9	69.9	69.9	46	48.2	0	0	---	0.00	29.965 
20:30	69.4	69.4	69.4	46	47.7	0	0	---	0.00	29.964 
20:35	69.1	69.1	69.1	48	48.6	0	0	---	0.00	29.965 
20:40	68.6	68.6	68.6	50	49.2	0	0	---	0.00	29.965 
20:45	68.1	68.1	68.1	50	48.7	0	0	---	0.00	29.965 
20:50	67.8	67.8	67.8	51	49.0	0	0	---	0.00	29.965 
20:55	67.4	67.4	67.4	51	48.6	0	0	---	0.00	29.964 
21:00	67.1	67.1	67.1	52	48.9	0	0	---	0.00	29.966 
21:05	66.9	66.9	66.9	53	49.2	0	0	---	0.00	29.964 
21:10	66.6	66.6	66.6	53	48.9	0	0	---	0.00	29.964 
21:15	66.3	66.3	66.3	53	48.6	0	0	---	0.00	29.964 
21:20	66.0	66.0	66.0	54	48.9	0	0	---	0.00	29.965 
21:25	65.8	65.8	65.8	55	49.2	0	0	---	0.00	29.965 
21:30	65.5	65.5	65.5	55	48.9	0	0	---	0.00	29.965 
21:35	65.2	65.2	65.2	55	48.6	0	0	---	0.00	29.966 
21:40	65.2	65.2	65.2	56	49.1	0	0	---	0.00	29.967 
21:45	65.0	65.0	65.0	57	49.4	0	0	---	0.00	29.965 
21:50	64.7	64.7	64.7	57	49.1	0	1	90	0.00	29.965 
21:55	64.7	64.7	64.7	56	48.6	0	1	90	0.00	29.966 
22:00	64.8	64.8	64.8	55	48.2	0	1	90	0.00	29.967 
22:05	64.8	64.8	64.8	56	48.7	0	1	90	0.00	29.964 
22:10	64.8	64.8	64.8	55	48.2	0	0	---	0.00	29.964 
22:15	64.8	64.8	64.8	55	48.2	0	0	---	0.00	29.968 
22:20	64.8	64.8	64.8	55	48.2	0	2	90	0.00	29.969 
22:25	64.7	64.7	64.7	56	48.6	0	1	90	0.00	29.969 
22:30	64.7	64.7	64.7	56	48.6	0	1	90	0.00	29.971 
22:35	64.5	64.5	64.5	57	48.9	0	1	90	0.00	29.970 
22:40	64.5	64.5	64.5	58	49.4	0	1	90	0.00	29.965 
22:45	64.7	64.7	64.7	56	48.6	1	3	90	0.00	29.964 
22:50	65.2	65.2	65.2	55	48.6	1	2	112	0.00	29.965 
22:55	65.3	65.3	65.3	56	49.2	0	3	112	0.00	29.965 
23:00	65.2	65.2	65.2	56	49.1	0	2	112	0.00	29.966 
23:05	65.0	65.0	65.0	56	48.9	0	1	112	0.00	29.970 
23:10	64.5	64.5	64.5	57	48.9	0	0	---	0.00	29.976 
23:15	64.2	64.2	64.2	57	48.6	0	0	---	0.00	29.977 
23:20	63.9	63.9	63.9	58	48.8	0	0	---	0.00	29.978 
23:25	63.4	63.4	63.4	59	48.8	0	0	---	0.00	29.978 
23:30	63.2	63.2	63.2	60	49.1	0	1	112	0.00	29.979 
23:35	63.2	63.2	63.2	60	49.1	0	1	112	0.00	29.978 
23:40	63.1	63.1	63.1	60	49.0	0	1	112	0.00	29.975 
23:45	62.9	62.9	62.9	61	49.2	0	2	112	0.00	29.974 
23:50	62.7	62.7	62.7	62	49.5	0	0	---	0.00	29.971 
23:55	62.6	62.6	62.6	62	49.4	0	1	112	0.00	29.966 

CoCoRaHS
IN-AL-39
A2 Web Hosting
Creative Commons License
GoDaddy
Look for:

loaded 2017-12-13 02:42:32 • last modified 2010-11-18 10:43:29
Privacy PolicyDisclaimer
• wx.awcolley.com is powered by PmWiki v.2002016 •
• all content (unless otherwise noted) © 2017 A W Colley